Time;durP1;ratioP1;P1;durP2;ratioP2;P2;SDS_P1;SDS_P2;PMS_P1;PMS_P2;Temp;Humidity;BMP_temperature;BMP_pressure;BME280_temperature;BME280_humidity;BME280_pressure;Samples;Min_cycle;Max_cycle;Signal;HPM_P1;HPM_P2
2022/01/12 00:00:05;;;;;;;35.80;18.27;;;;;;;;;;5052501;28;20025;-69
2022/01/12 00:02:31;;;;;;;29.63;18.00;;;;;;;;;;5051749;28;20553;-69
2022/01/12 00:04:57;;;;;;;33.05;18.98;;;;;;;;;;5052512;28;20041;-70
2022/01/12 00:07:22;;;;;;;31.08;18.85;;;;;;;;;;5052348;28;20040;-69
2022/01/12 00:09:48;;;;;;;30.95;17.55;;;;;;;;;;5051443;28;20425;-69
2022/01/12 00:12:13;;;;;;;33.58;19.30;;;;;;;;;;5053242;28;20455;-69
2022/01/12 00:14:38;;;;;;;28.85;16.63;;;;;;;;;;5048447;28;20495;-69
2022/01/12 00:17:04;;;;;;;34.45;19.10;;;;;;;;;;5048308;28;20046;-69
2022/01/12 00:19:29;;;;;;;32.67;18.48;;;;;;;;;;5053907;28;20028;-69
2022/01/12 00:21:56;;;;;;;29.30;17.00;;;;;;;;;;5054560;28;20089;-69
2022/01/12 00:24:22;;;;;;;27.80;17.25;;;;;;;;;;5050452;28;20051;-70
2022/01/12 00:35:16;;;;;;;29.43;16.63;;;;;;;;;;5051679;28;20777;-70
2022/01/12 00:37:42;;;;;;;30.45;16.48;;;;;;;;;;5051903;28;20288;-69
2022/01/12 00:40:07;;;;;;;30.63;17.48;;;;;;;;;;5052966;28;20132;-69
2022/01/12 00:42:33;;;;;;;27.42;16.98;;;;;;;;;;5052046;28;20064;-69
2022/01/12 00:45:01;;;;;;;28.60;16.55;;;;;;;;;;5051964;28;20040;-69
2022/01/12 00:47:26;;;;;;;29.58;16.00;;;;;;;;;;5051077;28;20403;-69
2022/01/12 00:49:52;;;;;;;28.67;16.63;;;;;;;;;;5051147;28;20064;-69
2022/01/12 00:52:17;;;;;;;29.42;17.35;;;;;;;;;;5052297;28;20333;-69
2022/01/12 00:54:42;;;;;;;34.40;19.30;;;;;;;;;;5051126;28;20024;-69
2022/01/12 00:57:08;;;;;;;34.58;18.95;;;;;;;;;;5051348;28;20047;-69
2022/01/12 00:59:33;;;;;;;29.10;16.65;;;;;;;;;;5053064;28;20033;-69
2022/01/12 01:01:58;;;;;;;33.60;18.08;;;;;;;;;;5052731;28;20067;-69
2022/01/12 01:04:25;;;;;;;33.30;17.88;;;;;;;;;;5051943;28;20144;-69
2022/01/12 01:06:51;;;;;;;29.88;16.92;;;;;;;;;;5051317;28;20041;-69
2022/01/12 01:09:16;;;;;;;32.17;17.58;;;;;;;;;;5052121;28;20029;-69
2022/01/12 01:11:41;;;;;;;32.28;17.65;;;;;;;;;;5053252;28;21780;-69
2022/01/12 01:14:15;;;;;;;33.78;18.40;;;;;;;;;;5052292;28;20467;-69
2022/01/12 01:27:18;;;;;;;30.67;17.73;;;;;;;;;;5051197;28;20043;-69
2022/01/12 01:29:44;;;;;;;34.20;18.40;;;;;;;;;;5050701;28;20032;-69
2022/01/12 01:32:11;;;;;;;30.77;17.80;;;;;;;;;;5048120;28;20060;-70
2022/01/12 01:34:43;;;;;;;31.20;16.30;;;;;;;;;;5050808;28;20730;-70
2022/01/12 01:37:08;;;;;;;23.92;13.63;;;;;;;;;;5048240;28;20066;-69
2022/01/12 01:39:33;;;;;;;24.48;14.85;;;;;;;;;;5046814;28;20045;-69
2022/01/12 01:42:03;;;;;;;27.65;14.77;;;;;;;;;;5050390;28;20067;-69
2022/01/12 01:53:17;;;;;;;28.63;15.63;;;;;;;;;;5043805;28;20043;-69
2022/01/12 01:55:29;;;;;;;30.15;15.40;;;;;;;;;;5040023;28;20038;-69
2022/01/12 01:57:54;;;;;;;30.60;16.00;;;;;;;;;;5047463;28;20589;-69
2022/01/12 02:00:23;;;;;;;32.80;17.33;;;;;;;;;;5047650;28;20039;-69
2022/01/12 02:02:48;;;;;;;33.28;16.17;;;;;;;;;;5049284;28;20036;-69
2022/01/12 02:05:13;;;;;;;27.00;15.68;;;;;;;;;;5045195;28;20029;-70
2022/01/12 02:07:39;;;;;;;31.15;17.40;;;;;;;;;;5048263;28;20056;-70
2022/01/12 02:10:05;;;;;;;30.73;17.10;;;;;;;;;;5047068;28;20059;-69
2022/01/12 02:12:30;;;;;;;32.00;17.48;;;;;;;;;;5048624;28;20305;-69
2022/01/12 02:14:56;;;;;;;31.35;16.35;;;;;;;;;;5040281;28;20173;-69
2022/01/12 02:17:26;;;;;;;30.77;15.95;;;;;;;;;;5053235;28;20040;-69
2022/01/12 02:36:23;;;;;;;31.55;17.42;;;;;;;;;;5053160;28;20052;-69
2022/01/12 02:41:33;;;;;;;33.83;16.33;;;;;;;;;;5052170;28;20091;-69
2022/01/12 02:54:46;;;;;;;36.35;17.30;;;;;;;;;;5044242;28;20037;-69
2022/01/12 02:57:12;;;;;;;30.80;15.70;;;;;;;;;;5032938;28;20036;-69
2022/01/12 02:59:40;;;;;;;31.25;15.45;;;;;;;;;;5051009;28;20045;-69
2022/01/12 03:04:31;;;;;;;27.00;13.63;;;;;;;;;;5046338;28;20036;-69
2022/01/12 03:07:05;;;;;;;30.63;15.50;;;;;;;;;;5050052;28;20116;-70
2022/01/12 03:09:30;;;;;;;28.98;14.35;;;;;;;;;;5042502;28;20064;-69
2022/01/12 03:11:55;;;;;;;26.35;13.30;;;;;;;;;;5052257;28;20169;-69
2022/01/12 03:14:21;;;;;;;24.15;12.85;;;;;;;;;;5050897;28;20128;-69
2022/01/12 03:16:46;;;;;;;30.60;13.68;;;;;;;;;;5050938;28;20189;-69
2022/01/12 03:19:11;;;;;;;27.05;13.82;;;;;;;;;;5044518;28;20119;-69
2022/01/12 03:21:37;;;;;;;29.98;13.20;;;;;;;;;;5037316;28;20131;-70
2022/01/12 03:24:03;;;;;;;23.48;11.50;;;;;;;;;;5052182;28;20152;-70
2022/01/12 03:26:29;;;;;;;30.08;14.35;;;;;;;;;;5053140;28;20444;-69
2022/01/12 03:28:55;;;;;;;27.83;13.52;;;;;;;;;;5051844;28;20041;-69
2022/01/12 03:31:24;;;;;;;29.77;14.60;;;;;;;;;;5051506;28;20588;-69
2022/01/12 03:33:55;;;;;;;31.13;15.02;;;;;;;;;;5051822;28;20115;-70
2022/01/12 03:38:50;;;;;;;32.35;14.65;;;;;;;;;;5049732;28;20040;-69
2022/01/12 03:41:15;;;;;;;32.92;16.00;;;;;;;;;;5063805;28;20461;-68
2022/01/12 03:43:40;;;;;;;30.45;15.90;;;;;;;;;;5068757;28;20131;-68
2022/01/12 03:46:06;;;;;;;33.97;15.63;;;;;;;;;;5068831;28;20021;-68
2022/01/12 03:48:31;;;;;;;31.90;15.00;;;;;;;;;;5068864;28;20119;-68
2022/01/12 03:50:56;;;;;;;30.75;15.95;;;;;;;;;;5070206;28;20039;-68
2022/01/12 03:53:22;;;;;;;28.65;14.48;;;;;;;;;;5068818;28;20024;-68
2022/01/12 03:55:47;;;;;;;27.77;14.20;;;;;;;;;;5069944;28;20168;-68
2022/01/12 03:58:13;;;;;;;23.50;12.90;;;;;;;;;;5068865;28;20044;-68
2022/01/12 04:00:38;;;;;;;29.30;13.65;;;;;;;;;;5067094;28;20064;-68
2022/01/12 04:03:06;;;;;;;34.28;14.27;;;;;;;;;;5068658;28;20059;-67
2022/01/12 04:08:23;;;;;;;28.40;13.43;;;;;;;;;;5069763;28;20059;-67
2022/01/12 04:11:00;;;;;;;25.75;13.15;;;;;;;;;;5068560;28;20035;-67
2022/01/12 04:13:27;;;;;;;28.35;13.35;;;;;;;;;;5068385;28;20147;-67
2022/01/12 04:16:02;;;;;;;27.20;13.80;;;;;;;;;;5069137;28;20413;-68
2022/01/12 04:18:27;;;;;;;24.02;12.90;;;;;;;;;;5069562;28;20029;-68
2022/01/12 04:20:52;;;;;;;26.73;13.05;;;;;;;;;;5069258;28;20039;-68
2022/01/12 04:23:19;;;;;;;24.92;13.13;;;;;;;;;;5069680;28;20368;-68
2022/01/12 04:25:58;;;;;;;22.95;12.73;;;;;;;;;;5067335;28;20032;-68
2022/01/12 04:28:25;;;;;;;24.75;12.25;;;;;;;;;;5053328;28;20036;-68
2022/01/12 04:30:51;;;;;;;19.65;11.20;;;;;;;;;;5049887;28;20256;-68
2022/01/12 04:33:17;;;;;;;18.50;10.13;;;;;;;;;;5068006;28;20032;-68
2022/01/12 04:35:48;;;;;;;14.15;9.10;;;;;;;;;;5051047;28;20060;-68
2022/01/12 04:38:14;;;;;;;17.40;10.30;;;;;;;;;;5068804;28;20100;-70
2022/01/12 04:40:39;;;;;;;18.88;10.68;;;;;;;;;;5067574;28;20471;-67
2022/01/12 04:43:06;;;;;;;21.27;11.80;;;;;;;;;;5067758;28;20024;-68
2022/01/12 04:45:38;;;;;;;22.98;11.40;;;;;;;;;;5050581;28;20032;-68
2022/01/12 04:50:41;;;;;;;19.95;11.25;;;;;;;;;;5068615;28;20033;-68
2022/01/12 04:53:07;;;;;;;19.25;10.70;;;;;;;;;;5067539;28;20119;-68
2022/01/12 04:55:32;;;;;;;23.13;12.13;;;;;;;;;;5069274;28;20028;-67
2022/01/12 04:57:57;;;;;;;26.42;12.88;;;;;;;;;;5067747;28;20470;-68
2022/01/12 05:00:23;;;;;;;24.15;12.43;;;;;;;;;;5066440;28;20115;-68
2022/01/12 05:08:22;;;;;;;21.90;11.77;;;;;;;;;;5053175;28;20035;-68
2022/01/12 05:13:32;;;;;;;22.33;12.45;;;;;;;;;;5067583;28;20027;-67
2022/01/12 05:15:58;;;;;;;20.52;11.90;;;;;;;;;;5066912;28;20706;-68
2022/01/12 05:18:24;;;;;;;19.05;10.13;;;;;;;;;;5066777;28;20020;-68
2022/01/12 05:20:49;;;;;;;16.92;9.35;;;;;;;;;;5068225;28;20032;-68
2022/01/12 05:23:14;;;;;;;17.38;9.65;;;;;;;;;;5067965;28;20031;-67
2022/01/12 05:25:40;;;;;;;15.90;9.10;;;;;;;;;;5067163;28;20111;-68
2022/01/12 05:28:05;;;;;;;15.68;8.60;;;;;;;;;;5067747;28;20154;-67
2022/01/12 05:30:32;;;;;;;17.05;9.32;;;;;;;;;;5065883;28;20043;-68
2022/01/12 05:32:58;;;;;;;12.70;7.32;;;;;;;;;;5068230;28;20025;-68
2022/01/12 05:35:25;;;;;;;18.00;9.10;;;;;;;;;;5066876;28;20020;-67
2022/01/12 05:37:50;;;;;;;14.77;9.07;;;;;;;;;;5067783;28;20438;-68
2022/01/12 05:40:16;;;;;;;13.13;7.95;;;;;;;;;;5066792;28;20016;-67
2022/01/12 05:42:43;;;;;;;15.75;8.57;;;;;;;;;;5066638;28;20108;-67
2022/01/12 05:45:09;;;;;;;16.35;9.50;;;;;;;;;;5066775;28;20073;-67
2022/01/12 05:49:33;;;;;;;16.85;9.27;;;;;;;;;;5066867;28;20035;-68
2022/01/12 05:50:23;;;;;;;13.27;8.07;;;;;;;;;;5065988;28;20047;-68
2022/01/12 05:52:48;;;;;;;15.57;9.40;;;;;;;;;;5066526;28;20561;-67
2022/01/12 05:55:14;;;;;;;14.40;8.70;;;;;;;;;;5065928;28;20020;-67
2022/01/12 05:57:39;;;;;;;16.48;9.85;;;;;;;;;;5067704;28;20024;-67
2022/01/12 06:00:06;;;;;;;17.42;10.05;;;;;;;;;;5086746;28;20027;-68
2022/01/12 06:02:31;;;;;;;20.30;10.82;;;;;;;;;;5085753;28;20044;-67
2022/01/12 06:04:57;;;;;;;19.20;10.93;;;;;;;;;;5070161;28;20035;-68
2022/01/12 06:07:22;;;;;;;20.10;11.07;;;;;;;;;;5086687;28;20032;-68
2022/01/12 06:09:47;;;;;;;22.20;11.05;;;;;;;;;;5073411;28;20075;-68
2022/01/12 06:12:13;;;;;;;23.65;12.38;;;;;;;;;;5067918;28;20017;-67
2022/01/12 06:14:38;;;;;;;26.55;13.82;;;;;;;;;;5066327;28;20025;-68
2022/01/12 06:17:04;;;;;;;25.05;12.35;;;;;;;;;;5066249;28;20077;-67
2022/01/12 06:19:29;;;;;;;22.35;11.57;;;;;;;;;;5066088;28;20021;-68
2022/01/12 06:21:54;;;;;;;26.38;12.80;;;;;;;;;;5067776;28;20054;-68
2022/01/12 06:24:20;;;;;;;23.95;11.98;;;;;;;;;;5087926;28;20099;-67
2022/01/12 06:26:46;;;;;;;24.48;11.98;;;;;;;;;;5086627;28;20113;-68
2022/01/12 06:31:46;;;;;;;24.58;12.45;;;;;;;;;;5086959;28;20031;-67
2022/01/12 06:34:11;;;;;;;23.83;11.75;;;;;;;;;;5069744;28;20039;-67
2022/01/12 06:36:36;;;;;;;22.25;11.20;;;;;;;;;;5087652;28;20024;-68
2022/01/12 06:39:02;;;;;;;21.73;11.20;;;;;;;;;;5069561;28;20394;-68
2022/01/12 06:41:28;;;;;;;19.77;11.13;;;;;;;;;;5087151;28;20111;-67
2022/01/12 06:43:53;;;;;;;20.98;10.57;;;;;;;;;;5086487;28;20106;-67
2022/01/12 06:46:24;;;;;;;20.35;10.10;;;;;;;;;;5069386;28;20024;-67
2022/01/12 06:48:49;;;;;;;26.20;11.02;;;;;;;;;;5085925;28;20028;-67
2022/01/12 06:51:15;;;;;;;17.80;10.18;;;;;;;;;;5087134;28;20374;-67
2022/01/12 06:53:40;;;;;;;23.98;11.30;;;;;;;;;;5050657;28;20838;-69
2022/01/12 06:56:06;;;;;;;23.40;11.13;;;;;;;;;;5047283;28;20396;-69
2022/01/12 06:58:31;;;;;;;22.50;11.48;;;;;;;;;;5046747;28;20141;-69
2022/01/12 07:00:56;;;;;;;25.38;11.45;;;;;;;;;;5041891;28;20037;-69
2022/01/12 07:03:22;;;;;;;21.58;11.00;;;;;;;;;;5049563;28;20024;-69
2022/01/12 07:05:47;;;;;;;22.17;11.05;;;;;;;;;;5047701;28;20090;-69
2022/01/12 07:08:13;;;;;;;26.60;12.55;;;;;;;;;;5044879;28;20123;-69
2022/01/12 07:10:38;;;;;;;21.02;11.23;;;;;;;;;;5046592;28;20427;-69
2022/01/12 07:13:04;;;;;;;23.02;11.02;;;;;;;;;;5048870;28;20465;-69
2022/01/12 07:15:29;;;;;;;20.52;11.18;;;;;;;;;;5052974;28;20683;-69
2022/01/12 07:17:54;;;;;;;20.00;10.45;;;;;;;;;;5048899;28;20181;-69
2022/01/12 07:20:19;;;;;;;18.73;9.95;;;;;;;;;;5051926;28;20032;-69
2022/01/12 07:22:45;;;;;;;18.80;9.90;;;;;;;;;;5053011;28;20049;-69
2022/01/12 07:25:10;;;;;;;19.17;9.95;;;;;;;;;;5045862;28;20033;-69
2022/01/12 07:27:36;;;;;;;19.35;9.85;;;;;;;;;;5048690;28;20040;-69
2022/01/12 07:30:01;;;;;;;19.85;10.38;;;;;;;;;;5051124;28;20060;-69
2022/01/12 07:32:27;;;;;;;20.38;10.50;;;;;;;;;;5048569;28;20685;-69
2022/01/12 07:34:53;;;;;;;19.80;10.80;;;;;;;;;;5050594;28;20157;-69
2022/01/12 07:37:18;;;;;;;19.20;10.60;;;;;;;;;;5050684;28;20122;-69
2022/01/12 07:39:43;;;;;;;19.77;10.20;;;;;;;;;;5049520;28;20083;-69
2022/01/12 07:42:09;;;;;;;15.98;9.05;;;;;;;;;;5044608;28;20077;-69
2022/01/12 07:44:34;;;;;;;17.20;9.48;;;;;;;;;;5051418;28;20048;-69
2022/01/12 07:46:59;;;;;;;19.45;10.93;;;;;;;;;;5052930;28;20568;-69
2022/01/12 07:49:24;;;;;;;20.35;9.95;;;;;;;;;;5043757;28;20045;-69
2022/01/12 07:51:50;;;;;;;22.00;11.32;;;;;;;;;;5041357;28;20123;-69
2022/01/12 07:54:15;;;;;;;17.92;10.35;;;;;;;;;;5049785;28;21984;-69
2022/01/12 07:56:40;;;;;;;22.17;12.00;;;;;;;;;;5032147;28;20479;-69
2022/01/12 07:59:06;;;;;;;18.33;10.10;;;;;;;;;;5046459;28;21379;-69
2022/01/12 08:01:31;;;;;;;17.15;10.23;;;;;;;;;;5048335;28;20491;-69
2022/01/12 08:03:57;;;;;;;20.27;10.75;;;;;;;;;;5047772;28;20089;-69
2022/01/12 08:06:22;;;;;;;15.90;9.25;;;;;;;;;;5046352;28;20036;-69
2022/01/12 08:08:47;;;;;;;16.92;10.20;;;;;;;;;;5052631;28;20028;-69
2022/01/12 08:11:13;;;;;;;18.45;9.52;;;;;;;;;;5048340;28;20122;-69
2022/01/12 08:13:39;;;;;;;13.27;8.77;;;;;;;;;;5052019;28;20139;-69
2022/01/12 08:16:05;;;;;;;16.25;9.73;;;;;;;;;;5053829;28;20163;-69
2022/01/12 08:18:30;;;;;;;19.90;10.60;;;;;;;;;;5052140;28;20032;-69
2022/01/12 08:20:55;;;;;;;16.77;10.18;;;;;;;;;;5050467;28;20029;-69
2022/01/12 08:23:21;;;;;;;20.55;10.68;;;;;;;;;;5047804;28;20059;-69
2022/01/12 08:25:46;;;;;;;14.25;8.65;;;;;;;;;;5049853;28;20548;-69
2022/01/12 08:28:11;;;;;;;16.27;10.23;;;;;;;;;;5048979;28;20105;-69
2022/01/12 08:30:36;;;;;;;12.95;7.72;;;;;;;;;;5049606;28;20078;-69
2022/01/12 08:33:04;;;;;;;13.57;8.40;;;;;;;;;;5049609;28;20453;-69
2022/01/12 08:35:29;;;;;;;15.60;8.93;;;;;;;;;;5049220;28;20046;-69
2022/01/12 08:37:54;;;;;;;15.45;8.07;;;;;;;;;;5054739;28;20200;-69
2022/01/12 08:40:20;;;;;;;15.27;7.88;;;;;;;;;;5052962;28;20488;-69
2022/01/12 08:42:45;;;;;;;13.27;8.32;;;;;;;;;;5052584;28;20111;-69
2022/01/12 08:45:11;;;;;;;14.95;9.25;;;;;;;;;;5051679;28;20055;-69
2022/01/12 08:47:36;;;;;;;14.50;8.40;;;;;;;;;;5051233;28;20165;-69
2022/01/12 08:50:02;;;;;;;15.05;8.75;;;;;;;;;;5047029;28;20604;-69
2022/01/12 08:52:30;;;;;;;16.58;10.05;;;;;;;;;;5048155;28;20368;-69
2022/01/12 08:54:55;;;;;;;17.83;9.00;;;;;;;;;;5049969;28;20102;-69
2022/01/12 08:57:20;;;;;;;11.27;7.65;;;;;;;;;;5047323;28;20044;-69
2022/01/12 08:59:46;;;;;;;14.85;9.07;;;;;;;;;;5047603;28;20082;-69
2022/01/12 09:02:13;;;;;;;14.43;9.25;;;;;;;;;;5048951;28;20139;-69
2022/01/12 09:04:38;;;;;;;18.30;9.68;;;;;;;;;;5049332;28;20040;-69
2022/01/12 09:07:04;;;;;;;16.27;9.40;;;;;;;;;;5053454;28;20615;-69
2022/01/12 09:09:30;;;;;;;14.38;9.40;;;;;;;;;;5052506;28;20071;-69
2022/01/12 09:11:56;;;;;;;15.68;9.55;;;;;;;;;;5047604;28;20037;-69
2022/01/12 09:14:21;;;;;;;13.07;8.40;;;;;;;;;;5053959;28;20095;-70
2022/01/12 09:16:56;;;;;;;14.18;8.98;;;;;;;;;;5051953;28;20129;-69
2022/01/12 09:19:22;;;;;;;13.98;9.35;;;;;;;;;;5053478;28;20041;-69
2022/01/12 09:21:48;;;;;;;13.73;9.07;;;;;;;;;;5050160;28;20047;-69
2022/01/12 09:24:13;;;;;;;16.25;10.13;;;;;;;;;;5050507;28;20530;-69
2022/01/12 09:26:39;;;;;;;14.88;8.90;;;;;;;;;;5051461;28;20103;-69
2022/01/12 09:29:04;;;;;;;13.75;8.60;;;;;;;;;;5050978;28;20086;-69
2022/01/12 09:31:30;;;;;;;14.43;9.13;;;;;;;;;;5051690;28;20040;-69
2022/01/12 09:33:55;;;;;;;15.40;9.55;;;;;;;;;;5046822;28;20402;-69
2022/01/12 09:36:20;;;;;;;14.50;8.60;;;;;;;;;;5048563;28;20486;-69
2022/01/12 09:38:46;;;;;;;17.08;9.40;;;;;;;;;;5047724;28;20057;-69
2022/01/12 09:41:11;;;;;;;14.07;8.77;;;;;;;;;;5049006;28;20119;-69
2022/01/12 09:43:38;;;;;;;14.27;9.30;;;;;;;;;;5064789;28;20036;-68
2022/01/12 09:46:03;;;;;;;11.38;7.53;;;;;;;;;;5046600;28;20037;-68
2022/01/12 09:48:33;;;;;;;15.57;8.55;;;;;;;;;;5045107;28;20071;-68
2022/01/12 09:51:01;;;;;;;10.38;6.63;;;;;;;;;;5049665;28;20119;-69
2022/01/12 09:53:28;;;;;;;11.25;7.47;;;;;;;;;;5045539;28;20445;-69
2022/01/12 09:55:53;;;;;;;11.85;7.40;;;;;;;;;;5045166;28;20024;-68
2022/01/12 09:58:18;;;;;;;11.63;7.43;;;;;;;;;;5049168;28;20075;-69
2022/01/12 10:00:55;;;;;;;12.10;7.55;;;;;;;;;;5045876;28;20131;-69
2022/01/12 10:03:22;;;;;;;12.40;7.97;;;;;;;;;;5044820;28;20079;-68
2022/01/12 10:05:49;;;;;;;14.32;8.82;;;;;;;;;;5044713;28;20068;-68
2022/01/12 10:08:15;;;;;;;11.65;7.18;;;;;;;;;;5040939;28;20125;-68
2022/01/12 10:10:41;;;;;;;11.48;7.85;;;;;;;;;;5042529;28;20131;-69
2022/01/12 10:13:17;;;;;;;12.30;8.00;;;;;;;;;;5050133;28;20032;-68
2022/01/12 10:15:42;;;;;;;14.77;8.48;;;;;;;;;;5049107;28;20040;-68
2022/01/12 10:18:07;;;;;;;13.82;8.05;;;;;;;;;;5049047;28;20071;-69
2022/01/12 10:20:42;;;;;;;13.00;8.70;;;;;;;;;;5047343;28;20079;-68
2022/01/12 10:23:11;;;;;;;14.63;8.07;;;;;;;;;;5049033;28;20033;-69
2022/01/12 10:25:36;;;;;;;15.25;8.25;;;;;;;;;;5046222;28;20441;-69
2022/01/12 10:28:21;;;;;;;14.45;8.55;;;;;;;;;;5045723;28;20098;-69
2022/01/12 10:31:05;;;;;;;11.82;7.60;;;;;;;;;;5046080;28;20120;-69
2022/01/12 10:33:33;;;;;;;14.63;7.40;;;;;;;;;;5047879;28;20059;-69
2022/01/12 10:36:00;;;;;;;12.35;7.60;;;;;;;;;;5049818;28;20029;-69
2022/01/12 10:38:26;;;;;;;11.95;7.93;;;;;;;;;;5048193;28;20025;-68
2022/01/12 10:40:56;;;;;;;12.68;7.25;;;;;;;;;;5034753;28;20043;-68
2022/01/12 10:43:41;;;;;;;10.90;6.75;;;;;;;;;;5048726;28;20068;-68
2022/01/12 10:46:10;;;;;;;12.20;7.55;;;;;;;;;;5054250;28;20447;-68
2022/01/12 10:48:46;;;;;;;13.65;7.85;;;;;;;;;;5050085;28;20054;-69
2022/01/12 10:51:13;;;;;;;11.18;7.05;;;;;;;;;;5062612;28;20444;-69
2022/01/12 10:53:38;;;;;;;12.20;7.90;;;;;;;;;;5052081;28;20287;-68
2022/01/12 10:56:09;;;;;;;12.20;7.25;;;;;;;;;;5052800;28;20033;-68
2022/01/12 10:58:36;;;;;;;13.85;7.43;;;;;;;;;;5045986;28;20510;-68
2022/01/12 11:01:02;;;;;;;12.90;8.20;;;;;;;;;;5052218;28;20041;-69
2022/01/12 11:03:28;;;;;;;13.68;8.15;;;;;;;;;;5053451;28;20033;-69
2022/01/12 11:05:54;;;;;;;14.00;7.93;;;;;;;;;;5054918;28;20107;-69
2022/01/12 11:08:20;;;;;;;13.15;7.70;;;;;;;;;;5052100;28;20090;-69
2022/01/12 11:10:45;;;;;;;12.20;7.55;;;;;;;;;;5037310;28;20066;-69
2022/01/12 11:13:11;;;;;;;13.48;7.63;;;;;;;;;;5037460;28;20387;-69
2022/01/12 11:15:36;;;;;;;11.80;7.50;;;;;;;;;;5053442;28;20480;-69
2022/01/12 11:18:02;;;;;;;13.57;8.05;;;;;;;;;;5037114;28;20139;-69
2022/01/12 11:20:28;;;;;;;14.23;8.27;;;;;;;;;;5035632;28;20413;-68
2022/01/12 11:23:13;;;;;;;12.52;7.47;;;;;;;;;;5052268;28;20020;-69
2022/01/12 11:25:43;;;;;;;11.23;6.72;;;;;;;;;;5048945;28;20062;-69
2022/01/12 11:28:26;;;;;;;11.85;7.88;;;;;;;;;;5053007;28;20390;-69
2022/01/12 11:30:51;;;;;;;10.40;7.00;;;;;;;;;;5036846;28;20051;-68
2022/01/12 11:33:20;;;;;;;12.65;7.50;;;;;;;;;;5054492;28;20031;-68
2022/01/12 11:35:50;;;;;;;10.70;7.03;;;;;;;;;;5053260;28;21037;-68
2022/01/12 11:38:24;;;;;;;12.75;8.02;;;;;;;;;;5052084;28;20421;-69
2022/01/12 11:40:50;;;;;;;12.68;6.97;;;;;;;;;;5053686;28;20042;-69
2022/01/12 11:43:19;;;;;;;12.50;7.85;;;;;;;;;;5050240;28;20471;-69
2022/01/12 11:45:46;;;;;;;11.13;7.07;;;;;;;;;;5052110;28;20033;-69
2022/01/12 11:48:11;;;;;;;12.38;8.13;;;;;;;;;;5053052;28;20076;-69
2022/01/12 11:50:37;;;;;;;11.27;8.20;;;;;;;;;;5052996;28;20423;-68
2022/01/12 11:53:02;;;;;;;13.43;8.50;;;;;;;;;;5033884;28;20440;-69
2022/01/12 11:55:32;;;;;;;11.55;7.78;;;;;;;;;;5049036;28;20419;-69
2022/01/12 11:58:03;;;;;;;11.77;7.28;;;;;;;;;;5031404;28;20111;-69
2022/01/12 12:00:30;;;;;;;11.35;7.28;;;;;;;;;;5045223;28;20067;-69
2022/01/12 12:02:56;;;;;;;11.68;7.32;;;;;;;;;;5032812;28;20040;-68
2022/01/12 12:05:22;;;;;;;12.57;8.07;;;;;;;;;;5051240;28;20032;-68
2022/01/12 12:07:50;;;;;;;12.07;7.82;;;;;;;;;;5035082;28;20045;-68
2022/01/12 12:10:21;;;;;;;10.98;7.30;;;;;;;;;;5031036;28;20032;-68
2022/01/12 12:12:47;;;;;;;12.25;7.45;;;;;;;;;;5056175;28;20474;-68
2022/01/12 12:15:12;;;;;;;11.85;8.07;;;;;;;;;;5052821;28;20020;-68
2022/01/12 12:17:39;;;;;;;11.10;7.28;;;;;;;;;;5050454;28;20038;-69
2022/01/12 12:20:06;;;;;;;11.40;7.97;;;;;;;;;;5052257;28;20056;-68
2022/01/12 12:22:37;;;;;;;13.15;8.07;;;;;;;;;;5052298;28;20036;-68
2022/01/12 12:25:12;;;;;;;15.35;8.68;;;;;;;;;;5050404;28;20305;-68
2022/01/12 12:27:39;;;;;;;12.43;8.00;;;;;;;;;;5042928;28;20040;-68
2022/01/12 12:30:06;;;;;;;14.32;8.07;;;;;;;;;;5043078;28;20040;-69
2022/01/12 12:32:37;;;;;;;11.85;8.10;;;;;;;;;;5046848;28;20530;-69
2022/01/12 12:35:07;;;;;;;14.48;8.40;;;;;;;;;;5050785;28;20041;-69
2022/01/12 12:37:51;;;;;;;13.82;8.48;;;;;;;;;;5044669;28;20123;-68
2022/01/12 12:40:25;;;;;;;13.13;8.68;;;;;;;;;;5052485;28;20041;-68
2022/01/12 12:43:22;;;;;;;;;;;;;;;;;;5044826;28;20048;-68
2022/01/12 12:45:48;;;;;;;14.50;8.55;;;;;;;;;;5040337;28;19942;-68
2022/01/12 12:48:15;;;;;;;12.73;7.65;;;;;;;;;;5047331;28;20052;-68
2022/01/12 12:50:41;;;;;;;12.82;7.93;;;;;;;;;;5048325;28;20056;-68
2022/01/12 12:53:07;;;;;;;11.77;7.38;;;;;;;;;;5037113;28;20032;-68
2022/01/12 12:55:36;;;;;;;11.73;7.50;;;;;;;;;;5049689;28;20036;-69
2022/01/12 12:58:02;;;;;;;8.48;6.05;;;;;;;;;;5053144;28;20471;-69
2022/01/12 13:00:28;;;;;;;9.00;5.95;;;;;;;;;;5048235;28;20124;-68
2022/01/12 13:02:54;;;;;;;8.65;5.22;;;;;;;;;;5047098;28;20048;-68
2022/01/12 13:05:21;;;;;;;7.85;4.95;;;;;;;;;;5048488;28;20091;-69
2022/01/12 13:07:47;;;;;;;7.05;5.07;;;;;;;;;;5045936;28;20116;-68
2022/01/12 13:10:15;;;;;;;12.25;5.50;;;;;;;;;;5048357;28;20749;-68
2022/01/12 13:12:51;;;;;;;8.73;5.60;;;;;;;;;;5049022;28;20814;-68
2022/01/12 13:15:22;;;;;;;8.02;5.75;;;;;;;;;;5046942;28;20028;-69
2022/01/12 13:17:48;;;;;;;9.77;5.93;;;;;;;;;;5031899;28;20043;-68
2022/01/12 13:22:47;;;;;;;9.35;6.13;;;;;;;;;;5047112;28;20515;-68
2022/01/12 13:25:15;;;;;;;7.90;6.18;;;;;;;;;;5042956;28;20113;-69
2022/01/12 13:27:41;;;;;;;8.27;5.82;;;;;;;;;;5042598;28;20091;-68
2022/01/12 13:30:08;;;;;;;8.77;5.80;;;;;;;;;;5047470;28;20138;-68
2022/01/12 13:32:33;;;;;;;7.72;6.32;;;;;;;;;;5044979;28;20045;-68
2022/01/12 13:35:01;;;;;;;9.00;5.90;;;;;;;;;;5061396;28;20487;-69
2022/01/12 13:37:27;;;;;;;7.78;5.85;;;;;;;;;;5046915;28;20124;-69
2022/01/12 13:40:10;;;;;;;7.47;5.32;;;;;;;;;;5051705;28;20576;-69
2022/01/12 13:42:56;;;;;;;5.65;4.93;;;;;;;;;;5050216;28;20032;-68
2022/01/12 13:45:27;;;;;;;6.35;5.50;;;;;;;;;;5050447;28;20550;-69
2022/01/12 13:48:00;;;;;;;6.35;5.50;;;;;;;;;;5048496;28;20348;-69
2022/01/12 13:50:36;;;;;;;6.28;5.32;;;;;;;;;;5048832;28;20299;-69
2022/01/12 13:53:02;;;;;;;7.10;5.60;;;;;;;;;;5048397;28;20478;-69
2022/01/12 13:55:27;;;;;;;8.02;6.18;;;;;;;;;;5047324;28;20170;-69
2022/01/12 13:57:59;;;;;;;6.70;6.00;;;;;;;;;;5047647;28;20059;-69
2022/01/12 14:00:25;;;;;;;7.00;5.97;;;;;;;;;;5047109;28;20048;-69
2022/01/12 14:02:50;;;;;;;7.32;6.20;;;;;;;;;;5030065;28;20048;-69
2022/01/12 14:05:20;;;;;;;6.38;5.78;;;;;;;;;;5037521;28;20443;-69
2022/01/12 14:08:01;;;;;;;7.55;6.05;;;;;;;;;;5038678;28;20086;-69
2022/01/12 14:10:27;;;;;;;7.35;6.13;;;;;;;;;;5043317;28;20088;-69
2022/01/12 14:12:53;;;;;;;6.93;6.15;;;;;;;;;;5048126;28;20032;-69
2022/01/12 14:15:26;;;;;;;7.32;6.20;;;;;;;;;;5050245;28;20131;-68
2022/01/12 14:17:51;;;;;;;8.57;6.32;;;;;;;;;;5052082;28;20064;-69
2022/01/12 14:20:36;;;;;;;8.05;6.57;;;;;;;;;;5050275;28;20076;-69
2022/01/12 14:23:05;;;;;;;7.25;6.18;;;;;;;;;;5046566;28;20040;-69
2022/01/12 14:25:36;;;;;;;8.65;6.15;;;;;;;;;;5047833;28;20039;-69
2022/01/12 14:28:02;;;;;;;6.68;5.68;;;;;;;;;;5046399;28;20059;-69
2022/01/12 14:30:27;;;;;;;8.80;6.80;;;;;;;;;;5048398;28;20618;-69
2022/01/12 14:32:52;;;;;;;7.72;6.28;;;;;;;;;;5043283;28;20825;-69
2022/01/12 14:35:23;;;;;;;7.43;6.30;;;;;;;;;;5045981;28;20900;-69
2022/01/12 14:37:49;;;;;;;8.60;5.90;;;;;;;;;;5048877;28;20082;-68
2022/01/12 14:40:14;;;;;;;9.05;6.85;;;;;;;;;;5046467;28;20033;-68
2022/01/12 14:42:44;;;;;;;9.50;6.60;;;;;;;;;;5046621;28;20021;-69
2022/01/12 14:45:14;;;;;;;8.90;6.35;;;;;;;;;;5046805;28;20363;-69
2022/01/12 14:47:39;;;;;;;10.40;6.50;;;;;;;;;;5046232;28;20032;-69
2022/01/12 14:50:05;;;;;;;13.20;7.25;;;;;;;;;;5044149;28;20082;-69
2022/01/12 14:52:30;;;;;;;11.88;6.97;;;;;;;;;;5048257;28;20040;-69
2022/01/12 14:54:56;;;;;;;11.35;7.00;;;;;;;;;;5044306;28;20109;-68
2022/01/12 14:57:21;;;;;;;9.57;6.97;;;;;;;;;;5047608;28;20119;-69
2022/01/12 14:59:46;;;;;;;9.18;6.75;;;;;;;;;;5052650;28;20133;-68
2022/01/12 15:02:11;;;;;;;10.75;7.10;;;;;;;;;;5048672;28;20598;-69
2022/01/12 15:04:37;;;;;;;10.95;6.70;;;;;;;;;;5050258;28;20046;-69
2022/01/12 15:07:02;;;;;;;11.65;6.72;;;;;;;;;;5052823;28;20494;-68
2022/01/12 15:09:28;;;;;;;12.02;7.82;;;;;;;;;;5054258;28;21925;-69
2022/01/12 15:11:53;;;;;;;10.35;7.13;;;;;;;;;;5045569;28;20025;-68
2022/01/12 15:14:28;;;;;;;10.73;6.85;;;;;;;;;;5052440;28;20117;-68
2022/01/12 15:16:54;;;;;;;13.38;6.60;;;;;;;;;;5050564;28;20048;-68
2022/01/12 15:19:19;;;;;;;11.23;6.85;;;;;;;;;;5049261;28;20085;-69
2022/01/12 15:21:44;;;;;;;12.25;7.75;;;;;;;;;;5048231;28;20036;-68
2022/01/12 15:24:10;;;;;;;21.38;10.82;;;;;;;;;;5044472;28;20083;-68
2022/01/12 15:26:35;;;;;;;46.90;18.30;;;;;;;;;;5049639;28;20029;-68
2022/01/12 15:29:01;;;;;;;47.00;19.42;;;;;;;;;;5050783;28;20591;-69
2022/01/12 15:31:26;;;;;;;38.50;16.42;;;;;;;;;;5046973;28;21516;-69
2022/01/12 15:33:51;;;;;;;22.58;11.82;;;;;;;;;;5052649;28;20043;-69
2022/01/12 15:36:17;;;;;;;16.13;9.43;;;;;;;;;;5054456;28;20131;-68
2022/01/12 15:38:42;;;;;;;15.30;10.05;;;;;;;;;;5054664;28;20041;-69
2022/01/12 15:41:07;;;;;;;16.75;9.95;;;;;;;;;;5046787;28;20116;-68
2022/01/12 15:43:33;;;;;;;17.02;9.65;;;;;;;;;;5057086;28;20021;-68
2022/01/12 15:45:58;;;;;;;18.75;11.13;;;;;;;;;;5057558;28;20170;-68